sensor_id;sensor_type;location;lat;lon;timestamp;temperature;humidity
27306;DHT22;14792;50.886;6.468;2023-01-25T00:02:40;1.40;99.90
27306;DHT22;14792;50.886;6.468;2023-01-25T00:05:42;1.40;99.90
27306;DHT22;14792;50.886;6.468;2023-01-25T00:08:46;1.40;99.90
27306;DHT22;14792;50.886;6.468;2023-01-25T00:11:45;1.40;99.90
27306;DHT22;14792;50.886;6.468;2023-01-25T00:14:47;1.40;99.90
27306;DHT22;14792;50.886;6.468;2023-01-25T00:17:48;1.40;99.90
27306;DHT22;14792;50.886;6.468;2023-01-25T00:20:50;1.40;99.90
27306;DHT22;14792;50.886;6.468;2023-01-25T00:23:51;1.40;99.90
27306;DHT22;14792;50.886;6.468;2023-01-25T00:26:53;1.30;99.90
27306;DHT22;14792;50.886;6.468;2023-01-25T00:29:55;1.20;99.90
27306;DHT22;14792;50.886;6.468;2023-01-25T00:39:39;1.30;99.90
27306;DHT22;14792;50.886;6.468;2023-01-25T00:42:41;1.30;99.90
27306;DHT22;14792;50.886;6.468;2023-01-25T00:45:43;1.20;99.90
27306;DHT22;14792;50.886;6.468;2023-01-25T00:48:44;1.20;99.90
27306;DHT22;14792;50.886;6.468;2023-01-25T00:51:46;1.20;99.90
27306;DHT22;14792;50.886;6.468;2023-01-25T00:54:49;1.20;99.90
27306;DHT22;14792;50.886;6.468;2023-01-25T00:57:50;1.20;99.90
27306;DHT22;14792;50.886;6.468;2023-01-25T01:00:55;1.10;99.90
27306;DHT22;14792;50.886;6.468;2023-01-25T01:03:56;1.10;99.90
27306;DHT22;14792;50.886;6.468;2023-01-25T01:06:58;1.10;99.90
27306;DHT22;14792;50.886;6.468;2023-01-25T01:09:59;1.10;99.90
27306;DHT22;14792;50.886;6.468;2023-01-25T01:13:01;1.10;99.90
27306;DHT22;14792;50.886;6.468;2023-01-25T01:16:03;1.10;99.90
27306;DHT22;14792;50.886;6.468;2023-01-25T01:19:04;1.20;99.90
27306;DHT22;14792;50.886;6.468;2023-01-25T01:22:06;1.30;99.90
27306;DHT22;14792;50.886;6.468;2023-01-25T01:25:07;1.20;99.90
27306;DHT22;14792;50.886;6.468;2023-01-25T01:28:09;1.20;99.90
27306;DHT22;14792;50.886;6.468;2023-01-25T01:31:11;1.20;99.90
27306;DHT22;14792;50.886;6.468;2023-01-25T01:34:12;1.20;99.90
27306;DHT22;14792;50.886;6.468;2023-01-25T01:37:14;1.20;99.90
27306;DHT22;14792;50.886;6.468;2023-01-25T01:40:15;1.10;99.90
27306;DHT22;14792;50.886;6.468;2023-01-25T01:43:21;1.10;99.90
27306;DHT22;14792;50.886;6.468;2023-01-25T01:46:24;1.10;99.90
27306;DHT22;14792;50.886;6.468;2023-01-25T01:49:27;1.10;99.90
27306;DHT22;14792;50.886;6.468;2023-01-25T01:52:29;1.10;99.90
27306;DHT22;14792;50.886;6.468;2023-01-25T01:55:30;1.10;99.90
27306;DHT22;14792;50.886;6.468;2023-01-25T01:58:31;1.00;99.90
27306;DHT22;14792;50.886;6.468;2023-01-25T02:01:33;1.00;99.90
27306;DHT22;14792;50.886;6.468;2023-01-25T02:04:34;1.00;99.90
27306;DHT22;14792;50.886;6.468;2023-01-25T02:07:37;1.00;99.90
27306;DHT22;14792;50.886;6.468;2023-01-25T02:10:38;1.00;99.90
27306;DHT22;14792;50.886;6.468;2023-01-25T02:13:39;1.00;99.90
27306;DHT22;14792;50.886;6.468;2023-01-25T02:16:41;1.00;99.90
27306;DHT22;14792;50.886;6.468;2023-01-25T02:19:45;0.90;99.90
27306;DHT22;14792;50.886;6.468;2023-01-25T02:22:55;0.90;99.90
27306;DHT22;14792;50.886;6.468;2023-01-25T02:25:57;0.90;99.90
27306;DHT22;14792;50.886;6.468;2023-01-25T02:29:05;1.00;99.90
27306;DHT22;14792;50.886;6.468;2023-01-25T02:32:07;1.10;99.90
27306;DHT22;14792;50.886;6.468;2023-01-25T02:35:16;1.00;99.90
27306;DHT22;14792;50.886;6.468;2023-01-25T02:38:11;1.00;99.90
27306;DHT22;14792;50.886;6.468;2023-01-25T02:41:34;1.00;99.90
27306;DHT22;14792;50.886;6.468;2023-01-25T02:44:14;1.00;99.90
27306;DHT22;14792;50.886;6.468;2023-01-25T02:47:15;1.00;99.90
27306;DHT22;14792;50.886;6.468;2023-01-25T02:50:17;1.00;99.90
27306;DHT22;14792;50.886;6.468;2023-01-25T02:53:18;1.00;99.90
27306;DHT22;14792;50.886;6.468;2023-01-25T02:56:20;1.00;99.90
27306;DHT22;14792;50.886;6.468;2023-01-25T02:59:22;1.00;99.90
27306;DHT22;14792;50.886;6.468;2023-01-25T03:02:23;1.00;99.90
27306;DHT22;14792;50.886;6.468;2023-01-25T03:05:25;1.00;99.90
27306;DHT22;14792;50.886;6.468;2023-01-25T03:08:26;1.00;99.90
27306;DHT22;14792;50.886;6.468;2023-01-25T03:11:28;1.10;99.90
27306;DHT22;14792;50.886;6.468;2023-01-25T03:14:29;1.10;99.90
27306;DHT22;14792;50.886;6.468;2023-01-25T03:17:32;1.00;99.90
27306;DHT22;14792;50.886;6.468;2023-01-25T03:20:34;1.00;99.90
27306;DHT22;14792;50.886;6.468;2023-01-25T03:23:35;1.00;99.90
27306;DHT22;14792;50.886;6.468;2023-01-25T03:26:37;1.00;99.90
27306;DHT22;14792;50.886;6.468;2023-01-25T03:29:39;1.00;99.90
27306;DHT22;14792;50.886;6.468;2023-01-25T03:32:40;0.90;99.90
27306;DHT22;14792;50.886;6.468;2023-01-25T03:35:42;0.90;99.90
27306;DHT22;14792;50.886;6.468;2023-01-25T03:38:43;0.90;99.90
27306;DHT22;14792;50.886;6.468;2023-01-25T03:41:45;0.90;99.90
27306;DHT22;14792;50.886;6.468;2023-01-25T03:44:46;0.90;99.90
27306;DHT22;14792;50.886;6.468;2023-01-25T03:47:48;0.90;99.90
27306;DHT22;14792;50.886;6.468;2023-01-25T03:50:50;0.90;99.90
27306;DHT22;14792;50.886;6.468;2023-01-25T03:53:51;0.90;99.90
27306;DHT22;14792;50.886;6.468;2023-01-25T03:56:53;0.90;99.90
27306;DHT22;14792;50.886;6.468;2023-01-25T03:59:54;0.90;99.90
27306;DHT22;14792;50.886;6.468;2023-01-25T04:02:56;0.90;99.90
27306;DHT22;14792;50.886;6.468;2023-01-25T04:05:58;0.90;99.90
27306;DHT22;14792;50.886;6.468;2023-01-25T04:08:59;0.90;99.90
27306;DHT22;14792;50.886;6.468;2023-01-25T04:12:01;0.80;99.90
27306;DHT22;14792;50.886;6.468;2023-01-25T04:15:03;0.80;99.90
27306;DHT22;14792;50.886;6.468;2023-01-25T04:18:04;0.80;99.90
27306;DHT22;14792;50.886;6.468;2023-01-25T04:21:06;0.80;99.90
27306;DHT22;14792;50.886;6.468;2023-01-25T04:24:08;0.80;99.90
27306;DHT22;14792;50.886;6.468;2023-01-25T04:27:10;0.80;99.90
27306;DHT22;14792;50.886;6.468;2023-01-25T04:30:11;0.80;99.90
27306;DHT22;14792;50.886;6.468;2023-01-25T04:33:13;0.80;99.90
27306;DHT22;14792;50.886;6.468;2023-01-25T04:36:15;0.70;99.90
27306;DHT22;14792;50.886;6.468;2023-01-25T04:39:16;0.70;99.90
27306;DHT22;14792;50.886;6.468;2023-01-25T04:42:18;0.80;99.90
27306;DHT22;14792;50.886;6.468;2023-01-25T04:45:20;0.60;99.90
27306;DHT22;14792;50.886;6.468;2023-01-25T04:48:22;0.80;99.90
27306;DHT22;14792;50.886;6.468;2023-01-25T04:51:23;0.90;99.90
27306;DHT22;14792;50.886;6.468;2023-01-25T04:54:25;1.00;99.90
27306;DHT22;14792;50.886;6.468;2023-01-25T04:57:26;1.00;99.90
27306;DHT22;14792;50.886;6.468;2023-01-25T05:00:28;1.00;99.90
27306;DHT22;14792;50.886;6.468;2023-01-25T05:03:30;1.00;99.90
27306;DHT22;14792;50.886;6.468;2023-01-25T05:06:31;1.00;99.90
27306;DHT22;14792;50.886;6.468;2023-01-25T05:09:33;1.10;99.90
27306;DHT22;14792;50.886;6.468;2023-01-25T05:12:37;1.10;99.90
27306;DHT22;14792;50.886;6.468;2023-01-25T05:15:38;1.00;99.90
27306;DHT22;14792;50.886;6.468;2023-01-25T05:18:40;1.10;99.90
27306;DHT22;14792;50.886;6.468;2023-01-25T05:21:42;1.00;99.90
27306;DHT22;14792;50.886;6.468;2023-01-25T05:24:58;0.90;99.90
27306;DHT22;14792;50.886;6.468;2023-01-25T05:28:02;0.90;99.90
27306;DHT22;14792;50.886;6.468;2023-01-25T05:31:04;0.90;99.90
27306;DHT22;14792;50.886;6.468;2023-01-25T05:34:07;0.80;99.90
27306;DHT22;14792;50.886;6.468;2023-01-25T05:37:08;0.80;99.90
27306;DHT22;14792;50.886;6.468;2023-01-25T05:40:09;0.80;99.90
27306;DHT22;14792;50.886;6.468;2023-01-25T05:43:10;0.80;99.90
27306;DHT22;14792;50.886;6.468;2023-01-25T05:46:12;0.70;99.90
27306;DHT22;14792;50.886;6.468;2023-01-25T05:49:14;0.70;99.90
27306;DHT22;14792;50.886;6.468;2023-01-25T05:52:15;0.60;99.90
27306;DHT22;14792;50.886;6.468;2023-01-25T05:55:17;0.60;99.90
27306;DHT22;14792;50.886;6.468;2023-01-25T05:58:19;0.70;99.90
27306;DHT22;14792;50.886;6.468;2023-01-25T06:01:20;0.70;99.90
27306;DHT22;14792;50.886;6.468;2023-01-25T06:04:22;0.60;99.90
27306;DHT22;14792;50.886;6.468;2023-01-25T06:07:23;0.60;99.90
27306;DHT22;14792;50.886;6.468;2023-01-25T06:10:25;0.50;99.90
27306;DHT22;14792;50.886;6.468;2023-01-25T06:13:27;0.60;99.90
27306;DHT22;14792;50.886;6.468;2023-01-25T06:16:28;0.60;99.90
27306;DHT22;14792;50.886;6.468;2023-01-25T06:19:30;0.70;99.90
27306;DHT22;14792;50.886;6.468;2023-01-25T06:22:31;0.70;99.90
27306;DHT22;14792;50.886;6.468;2023-01-25T06:25:33;0.80;99.90
27306;DHT22;14792;50.886;6.468;2023-01-25T06:28:35;0.70;99.90
27306;DHT22;14792;50.886;6.468;2023-01-25T06:31:36;0.70;99.90
27306;DHT22;14792;50.886;6.468;2023-01-25T06:34:38;0.70;99.90
27306;DHT22;14792;50.886;6.468;2023-01-25T06:37:39;0.80;99.90
27306;DHT22;14792;50.886;6.468;2023-01-25T06:40:41;0.80;99.90
27306;DHT22;14792;50.886;6.468;2023-01-25T06:43:43;0.80;99.90
27306;DHT22;14792;50.886;6.468;2023-01-25T06:46:44;0.70;99.90
27306;DHT22;14792;50.886;6.468;2023-01-25T06:49:46;0.70;99.90
27306;DHT22;14792;50.886;6.468;2023-01-25T06:52:53;0.70;99.90
27306;DHT22;14792;50.886;6.468;2023-01-25T06:56:01;0.70;99.90
27306;DHT22;14792;50.886;6.468;2023-01-25T06:59:02;0.80;99.90
27306;DHT22;14792;50.886;6.468;2023-01-25T07:02:04;0.80;99.90
27306;DHT22;14792;50.886;6.468;2023-01-25T07:05:05;0.80;99.90
27306;DHT22;14792;50.886;6.468;2023-01-25T07:08:07;0.90;99.90
27306;DHT22;14792;50.886;6.468;2023-01-25T07:11:09;0.90;99.90
27306;DHT22;14792;50.886;6.468;2023-01-25T07:14:10;0.80;99.90
27306;DHT22;14792;50.886;6.468;2023-01-25T07:17:12;0.80;99.90
27306;DHT22;14792;50.886;6.468;2023-01-25T07:20:14;0.80;99.90
27306;DHT22;14792;50.886;6.468;2023-01-25T07:23:15;0.90;99.90
27306;DHT22;14792;50.886;6.468;2023-01-25T07:26:20;0.90;99.90
27306;DHT22;14792;50.886;6.468;2023-01-25T07:29:21;1.00;99.90
27306;DHT22;14792;50.886;6.468;2023-01-25T07:32:23;1.00;99.90
27306;DHT22;14792;50.886;6.468;2023-01-25T07:35:24;1.00;99.90
27306;DHT22;14792;50.886;6.468;2023-01-25T07:38:26;0.90;99.90
27306;DHT22;14792;50.886;6.468;2023-01-25T07:41:27;0.80;99.90
27306;DHT22;14792;50.886;6.468;2023-01-25T07:44:29;0.80;99.90
27306;DHT22;14792;50.886;6.468;2023-01-25T07:47:30;0.90;99.90
27306;DHT22;14792;50.886;6.468;2023-01-25T07:50:32;0.80;99.90
27306;DHT22;14792;50.886;6.468;2023-01-25T07:53:34;0.80;99.90
27306;DHT22;14792;50.886;6.468;2023-01-25T07:56:36;0.70;99.90
27306;DHT22;14792;50.886;6.468;2023-01-25T07:59:40;0.70;99.90
27306;DHT22;14792;50.886;6.468;2023-01-25T08:02:41;0.70;99.90
27306;DHT22;14792;50.886;6.468;2023-01-25T08:05:43;0.80;99.90
27306;DHT22;14792;50.886;6.468;2023-01-25T08:08:46;0.70;99.90
27306;DHT22;14792;50.886;6.468;2023-01-25T08:11:46;0.70;99.90
27306;DHT22;14792;50.886;6.468;2023-01-25T08:14:48;0.70;99.90
27306;DHT22;14792;50.886;6.468;2023-01-25T08:17:49;0.60;99.90
27306;DHT22;14792;50.886;6.468;2023-01-25T08:20:51;0.60;99.90
27306;DHT22;14792;50.886;6.468;2023-01-25T08:23:53;0.60;99.90
27306;DHT22;14792;50.886;6.468;2023-01-25T08:26:55;0.70;99.90
27306;DHT22;14792;50.886;6.468;2023-01-25T08:29:57;0.70;99.90
27306;DHT22;14792;50.886;6.468;2023-01-25T08:32:58;0.60;99.90
27306;DHT22;14792;50.886;6.468;2023-01-25T08:36:00;0.60;99.90
27306;DHT22;14792;50.886;6.468;2023-01-25T08:39:03;0.70;99.90
27306;DHT22;14792;50.886;6.468;2023-01-25T08:42:03;0.60;99.90
27306;DHT22;14792;50.886;6.468;2023-01-25T08:45:05;0.60;99.90
27306;DHT22;14792;50.886;6.468;2023-01-25T08:48:07;0.70;99.90
27306;DHT22;14792;50.886;6.468;2023-01-25T08:51:10;0.80;99.90
27306;DHT22;14792;50.886;6.468;2023-01-25T08:54:11;0.80;99.90
27306;DHT22;14792;50.886;6.468;2023-01-25T08:57:12;0.90;99.90
27306;DHT22;14792;50.886;6.468;2023-01-25T09:00:13;0.70;99.90
27306;DHT22;14792;50.886;6.468;2023-01-25T09:03:15;0.80;99.90
27306;DHT22;14792;50.886;6.468;2023-01-25T09:06:17;0.70;99.90
27306;DHT22;14792;50.886;6.468;2023-01-25T09:09:18;0.70;99.90
27306;DHT22;14792;50.886;6.468;2023-01-25T09:12:20;0.70;99.90
27306;DHT22;14792;50.886;6.468;2023-01-25T09:15:21;0.80;99.90
27306;DHT22;14792;50.886;6.468;2023-01-25T09:18:23;0.80;99.90
27306;DHT22;14792;50.886;6.468;2023-01-25T09:21:24;0.90;99.90
27306;DHT22;14792;50.886;6.468;2023-01-25T09:24:26;0.80;99.90
27306;DHT22;14792;50.886;6.468;2023-01-25T09:27:28;0.80;99.90
27306;DHT22;14792;50.886;6.468;2023-01-25T09:30:29;0.80;99.90
27306;DHT22;14792;50.886;6.468;2023-01-25T09:33:32;0.80;99.90
27306;DHT22;14792;50.886;6.468;2023-01-25T09:36:32;0.80;99.90
27306;DHT22;14792;50.886;6.468;2023-01-25T09:39:34;0.80;99.90
27306;DHT22;14792;50.886;6.468;2023-01-25T09:45:43;0.70;99.90
27306;DHT22;14792;50.886;6.468;2023-01-25T09:48:50;0.70;99.90
27306;DHT22;14792;50.886;6.468;2023-01-25T09:55:09;0.80;99.90
27306;DHT22;14792;50.886;6.468;2023-01-25T09:58:08;0.70;99.90
27306;DHT22;14792;50.886;6.468;2023-01-25T10:01:50;0.70;99.90
27306;DHT22;14792;50.886;6.468;2023-01-25T10:07:43;0.80;99.90
27306;DHT22;14792;50.886;6.468;2023-01-25T10:10:40;0.90;99.90
27306;DHT22;14792;50.886;6.468;2023-01-25T10:13:37;0.80;99.90
27306;DHT22;14792;50.886;6.468;2023-01-25T10:20:12;0.60;99.90
27306;DHT22;14792;50.886;6.468;2023-01-25T10:23:18;0.60;99.90
27306;DHT22;14792;50.886;6.468;2023-01-25T10:26:25;0.70;99.90
27306;DHT22;14792;50.886;6.468;2023-01-25T10:29:27;0.70;99.90
27306;DHT22;14792;50.886;6.468;2023-01-25T10:32:29;0.60;99.90
27306;DHT22;14792;50.886;6.468;2023-01-25T10:35:36;0.70;99.90
27306;DHT22;14792;50.886;6.468;2023-01-25T10:38:41;0.60;99.90
27306;DHT22;14792;50.886;6.468;2023-01-25T10:41:50;0.60;99.90
27306;DHT22;14792;50.886;6.468;2023-01-25T10:44:46;0.40;99.90
27306;DHT22;14792;50.886;6.468;2023-01-25T10:47:51;0.40;99.90
27306;DHT22;14792;50.886;6.468;2023-01-25T10:50:50;0.50;99.90
27306;DHT22;14792;50.886;6.468;2023-01-25T10:53:53;0.50;99.90
27306;DHT22;14792;50.886;6.468;2023-01-25T10:56:52;0.60;99.90
27306;DHT22;14792;50.886;6.468;2023-01-25T10:59:54;0.50;99.90
27306;DHT22;14792;50.886;6.468;2023-01-25T11:02:55;0.50;99.90
27306;DHT22;14792;50.886;6.468;2023-01-25T11:05:57;0.50;99.90
27306;DHT22;14792;50.886;6.468;2023-01-25T11:08:58;0.40;99.90
27306;DHT22;14792;50.886;6.468;2023-01-25T11:15:21;0.50;99.90
27306;DHT22;14792;50.886;6.468;2023-01-25T11:18:18;0.50;99.90
27306;DHT22;14792;50.886;6.468;2023-01-25T11:21:15;0.70;99.90
27306;DHT22;14792;50.886;6.468;2023-01-25T11:24:16;0.60;99.90
27306;DHT22;14792;50.886;6.468;2023-01-25T11:27:26;0.70;99.90
27306;DHT22;14792;50.886;6.468;2023-01-25T11:30:28;0.70;99.90
27306;DHT22;14792;50.886;6.468;2023-01-25T11:33:29;0.80;99.90
27306;DHT22;14792;50.886;6.468;2023-01-25T11:39:57;0.80;99.90
27306;DHT22;14792;50.886;6.468;2023-01-25T11:52:33;0.70;99.90
27306;DHT22;14792;50.886;6.468;2023-01-25T11:55:34;0.80;99.90
27306;DHT22;14792;50.886;6.468;2023-01-25T11:58:50;0.80;99.90
27306;DHT22;14792;50.886;6.468;2023-01-25T12:05:25;0.90;99.90
27306;DHT22;14792;50.886;6.468;2023-01-25T12:11:33;1.00;99.90
27306;DHT22;14792;50.886;6.468;2023-01-25T12:21:23;1.10;99.90
27306;DHT22;14792;50.886;6.468;2023-01-25T12:28:00;0.90;99.90
27306;DHT22;14792;50.886;6.468;2023-01-25T12:31:02;0.80;99.90
27306;DHT22;14792;50.886;6.468;2023-01-25T12:34:03;0.80;99.90
27306;DHT22;14792;50.886;6.468;2023-01-25T12:37:08;0.70;99.90
27306;DHT22;14792;50.886;6.468;2023-01-25T12:40:13;0.90;99.90
27306;DHT22;14792;50.886;6.468;2023-01-25T12:43:21;0.90;99.90
27306;DHT22;14792;50.886;6.468;2023-01-25T12:46:14;0.90;99.90
27306;DHT22;14792;50.886;6.468;2023-01-25T12:49:24;0.90;99.90
27306;DHT22;14792;50.886;6.468;2023-01-25T12:52:31;0.80;99.90
27306;DHT22;14792;50.886;6.468;2023-01-25T12:55:31;1.00;99.90
27306;DHT22;14792;50.886;6.468;2023-01-25T12:58:55;1.20;99.90
27306;DHT22;14792;50.886;6.468;2023-01-25T13:01:57;1.20;99.90
27306;DHT22;14792;50.886;6.468;2023-01-25T13:05:09;1.20;99.90
27306;DHT22;14792;50.886;6.468;2023-01-25T13:11:21;1.20;99.90
27306;DHT22;14792;50.886;6.468;2023-01-25T13:14:27;1.30;99.90
27306;DHT22;14792;50.886;6.468;2023-01-25T13:17:30;1.30;99.90
27306;DHT22;14792;50.886;6.468;2023-01-25T13:23:40;1.20;99.90
27306;DHT22;14792;50.886;6.468;2023-01-25T13:29:55;1.10;99.90
27306;DHT22;14792;50.886;6.468;2023-01-25T13:32:57;0.90;99.90
27306;DHT22;14792;50.886;6.468;2023-01-25T13:35:57;0.90;99.90
27306;DHT22;14792;50.886;6.468;2023-01-25T13:38:59;0.60;99.90
27306;DHT22;14792;50.886;6.468;2023-01-25T13:42:01;0.60;99.90
27306;DHT22;14792;50.886;6.468;2023-01-25T13:45:03;0.80;99.90
27306;DHT22;14792;50.886;6.468;2023-01-25T13:48:13;0.80;99.90
27306;DHT22;14792;50.886;6.468;2023-01-25T13:51:14;0.70;99.90
27306;DHT22;14792;50.886;6.468;2023-01-25T13:54:16;0.80;99.90
27306;DHT22;14792;50.886;6.468;2023-01-25T13:57:21;1.00;99.90
27306;DHT22;14792;50.886;6.468;2023-01-25T14:00:21;0.90;99.90
27306;DHT22;14792;50.886;6.468;2023-01-25T14:03:33;0.60;99.90
27306;DHT22;14792;50.886;6.468;2023-01-25T14:06:33;0.80;99.90
27306;DHT22;14792;50.886;6.468;2023-01-25T14:09:34;0.70;99.90
27306;DHT22;14792;50.886;6.468;2023-01-25T14:12:39;0.60;99.90
27306;DHT22;14792;50.886;6.468;2023-01-25T14:15:57;0.40;99.90
27306;DHT22;14792;50.886;6.468;2023-01-25T14:19:19;0.50;99.90
27306;DHT22;14792;50.886;6.468;2023-01-25T14:22:27;0.40;99.90
27306;DHT22;14792;50.886;6.468;2023-01-25T14:25:28;0.40;99.90
27306;DHT22;14792;50.886;6.468;2023-01-25T14:28:30;0.40;99.90
27306;DHT22;14792;50.886;6.468;2023-01-25T14:31:33;0.40;99.90
27306;DHT22;14792;50.886;6.468;2023-01-25T14:34:33;0.40;99.90
27306;DHT22;14792;50.886;6.468;2023-01-25T14:37:34;0.40;99.90
27306;DHT22;14792;50.886;6.468;2023-01-25T14:40:36;0.50;99.90
27306;DHT22;14792;50.886;6.468;2023-01-25T14:43:38;0.40;99.90
27306;DHT22;14792;50.886;6.468;2023-01-25T14:46:40;0.40;99.90
27306;DHT22;14792;50.886;6.468;2023-01-25T14:49:42;0.40;99.90
27306;DHT22;14792;50.886;6.468;2023-01-25T14:52:43;0.30;99.90
27306;DHT22;14792;50.886;6.468;2023-01-25T14:55:45;0.30;99.90
27306;DHT22;14792;50.886;6.468;2023-01-25T14:58:46;0.30;99.90
27306;DHT22;14792;50.886;6.468;2023-01-25T15:01:48;0.30;99.90
27306;DHT22;14792;50.886;6.468;2023-01-25T15:11:24;0.40;99.90
27306;DHT22;14792;50.886;6.468;2023-01-25T15:14:49;0.40;99.90
27306;DHT22;14792;50.886;6.468;2023-01-25T15:17:50;0.30;99.90
27306;DHT22;14792;50.886;6.468;2023-01-25T15:20:52;0.30;99.90
27306;DHT22;14792;50.886;6.468;2023-01-25T15:23:54;0.30;99.90
27306;DHT22;14792;50.886;6.468;2023-01-25T15:26:55;0.30;99.90
27306;DHT22;14792;50.886;6.468;2023-01-25T15:29:57;0.30;99.90
27306;DHT22;14792;50.886;6.468;2023-01-25T15:32:58;0.20;99.90
27306;DHT22;14792;50.886;6.468;2023-01-25T15:36:00;0.20;99.90
27306;DHT22;14792;50.886;6.468;2023-01-25T15:39:02;0.20;99.90
27306;DHT22;14792;50.886;6.468;2023-01-25T15:42:04;0.20;99.90
27306;DHT22;14792;50.886;6.468;2023-01-25T15:45:06;0.10;99.90
27306;DHT22;14792;50.886;6.468;2023-01-25T15:48:13;0.20;99.90
27306;DHT22;14792;50.886;6.468;2023-01-25T15:51:13;0.20;99.90
27306;DHT22;14792;50.886;6.468;2023-01-25T15:54:15;0.30;99.90
27306;DHT22;14792;50.886;6.468;2023-01-25T15:57:30;0.40;99.90
27306;DHT22;14792;50.886;6.468;2023-01-25T16:00:21;0.20;99.90
27306;DHT22;14792;50.886;6.468;2023-01-25T16:03:22;0.20;99.90
27306;DHT22;14792;50.886;6.468;2023-01-25T16:06:50;0.30;99.90
27306;DHT22;14792;50.886;6.468;2023-01-25T16:09:30;0.30;99.90
27306;DHT22;14792;50.886;6.468;2023-01-25T16:12:31;0.40;99.90
27306;DHT22;14792;50.886;6.468;2023-01-25T16:15:33;0.50;99.90
27306;DHT22;14792;50.886;6.468;2023-01-25T16:18:34;0.50;99.90
27306;DHT22;14792;50.886;6.468;2023-01-25T16:21:37;0.60;99.90
27306;DHT22;14792;50.886;6.468;2023-01-25T16:24:39;0.50;99.90
27306;DHT22;14792;50.886;6.468;2023-01-25T16:27:40;0.40;99.90
27306;DHT22;14792;50.886;6.468;2023-01-25T16:30:42;0.50;99.90
27306;DHT22;14792;50.886;6.468;2023-01-25T16:33:50;0.30;99.90
27306;DHT22;14792;50.886;6.468;2023-01-25T16:36:52;0.20;99.90
27306;DHT22;14792;50.886;6.468;2023-01-25T16:39:53;0.30;99.90
27306;DHT22;14792;50.886;6.468;2023-01-25T16:42:55;0.30;99.90
27306;DHT22;14792;50.886;6.468;2023-01-25T16:45:57;0.40;99.90
27306;DHT22;14792;50.886;6.468;2023-01-25T16:48:58;0.40;99.90
27306;DHT22;14792;50.886;6.468;2023-01-25T16:52:02;0.50;99.90
27306;DHT22;14792;50.886;6.468;2023-01-25T16:55:09;0.40;99.90
27306;DHT22;14792;50.886;6.468;2023-01-25T16:58:10;0.30;99.90
27306;DHT22;14792;50.886;6.468;2023-01-25T17:01:12;0.30;99.90
27306;DHT22;14792;50.886;6.468;2023-01-25T17:04:13;0.30;99.90
27306;DHT22;14792;50.886;6.468;2023-01-25T17:07:15;0.30;99.90
27306;DHT22;14792;50.886;6.468;2023-01-25T17:10:16;0.30;99.90
27306;DHT22;14792;50.886;6.468;2023-01-25T17:13:18;0.20;99.90
27306;DHT22;14792;50.886;6.468;2023-01-25T17:16:20;0.20;99.90
27306;DHT22;14792;50.886;6.468;2023-01-25T17:19:21;0.10;99.90
27306;DHT22;14792;50.886;6.468;2023-01-25T17:22:23;0.20;99.90
27306;DHT22;14792;50.886;6.468;2023-01-25T17:25:24;0.10;99.90
27306;DHT22;14792;50.886;6.468;2023-01-25T17:28:26;0.10;99.90
27306;DHT22;14792;50.886;6.468;2023-01-25T17:31:29;0.10;99.90
27306;DHT22;14792;50.886;6.468;2023-01-25T17:34:29;0.10;99.90
27306;DHT22;14792;50.886;6.468;2023-01-25T17:37:31;0.10;99.90
27306;DHT22;14792;50.886;6.468;2023-01-25T17:40:33;0.20;99.90
27306;DHT22;14792;50.886;6.468;2023-01-25T17:43:34;0.20;99.90
27306;DHT22;14792;50.886;6.468;2023-01-25T17:46:36;0.10;99.90
27306;DHT22;14792;50.886;6.468;2023-01-25T17:49:37;0.00;99.90
27306;DHT22;14792;50.886;6.468;2023-01-25T17:52:39;0.00;99.90
27306;DHT22;14792;50.886;6.468;2023-01-25T17:55:40;0.10;99.90
27306;DHT22;14792;50.886;6.468;2023-01-25T17:58:42;0.10;99.90
27306;DHT22;14792;50.886;6.468;2023-01-25T18:01:44;0.00;99.90
27306;DHT22;14792;50.886;6.468;2023-01-25T18:04:47;-0.10;99.90
27306;DHT22;14792;50.886;6.468;2023-01-25T18:07:48;-0.10;99.90
27306;DHT22;14792;50.886;6.468;2023-01-25T18:10:50;-0.10;99.90
27306;DHT22;14792;50.886;6.468;2023-01-25T18:13:55;-0.10;99.90
27306;DHT22;14792;50.886;6.468;2023-01-25T18:16:56;-0.10;99.90
27306;DHT22;14792;50.886;6.468;2023-01-25T18:19:57;0.00;99.90
27306;DHT22;14792;50.886;6.468;2023-01-25T18:22:59;0.00;99.90
27306;DHT22;14792;50.886;6.468;2023-01-25T18:26:01;-0.10;99.90
27306;DHT22;14792;50.886;6.468;2023-01-25T18:32:07;-0.10;99.90
27306;DHT22;14792;50.886;6.468;2023-01-25T18:35:09;-0.20;99.90
27306;DHT22;14792;50.886;6.468;2023-01-25T18:38:10;-0.30;99.90
27306;DHT22;14792;50.886;6.468;2023-01-25T18:41:12;-0.30;99.90
27306;DHT22;14792;50.886;6.468;2023-01-25T18:44:14;-0.30;99.90
27306;DHT22;14792;50.886;6.468;2023-01-25T18:47:19;-0.30;99.90
27306;DHT22;14792;50.886;6.468;2023-01-25T18:50:17;-0.30;99.90
27306;DHT22;14792;50.886;6.468;2023-01-25T18:53:18;-0.40;99.90
27306;DHT22;14792;50.886;6.468;2023-01-25T18:56:20;-0.40;99.90
27306;DHT22;14792;50.886;6.468;2023-01-25T18:59:22;-0.50;99.90
27306;DHT22;14792;50.886;6.468;2023-01-25T19:02:27;-0.50;99.90
27306;DHT22;14792;50.886;6.468;2023-01-25T19:05:29;-0.40;99.90
27306;DHT22;14792;50.886;6.468;2023-01-25T19:08:31;-0.60;99.90
27306;DHT22;14792;50.886;6.468;2023-01-25T19:11:35;-0.60;99.90
27306;DHT22;14792;50.886;6.468;2023-01-25T19:14:36;-0.50;99.90
27306;DHT22;14792;50.886;6.468;2023-01-25T19:17:38;-0.50;99.90
27306;DHT22;14792;50.886;6.468;2023-01-25T19:20:40;-0.60;99.90
27306;DHT22;14792;50.886;6.468;2023-01-25T19:23:42;-0.60;99.90
27306;DHT22;14792;50.886;6.468;2023-01-25T19:26:44;-0.60;99.90
27306;DHT22;14792;50.886;6.468;2023-01-25T19:29:45;-0.60;99.90
27306;DHT22;14792;50.886;6.468;2023-01-25T19:32:47;-0.60;99.90
27306;DHT22;14792;50.886;6.468;2023-01-25T19:35:56;-0.70;99.90
27306;DHT22;14792;50.886;6.468;2023-01-25T19:38:53;-0.80;99.90
27306;DHT22;14792;50.886;6.468;2023-01-25T19:41:55;-0.80;99.90
27306;DHT22;14792;50.886;6.468;2023-01-25T19:44:56;-0.60;99.90
27306;DHT22;14792;50.886;6.468;2023-01-25T19:47:58;-0.60;99.90
27306;DHT22;14792;50.886;6.468;2023-01-25T19:51:16;-0.50;99.90
27306;DHT22;14792;50.886;6.468;2023-01-25T19:54:16;-0.60;99.90
27306;DHT22;14792;50.886;6.468;2023-01-25T19:57:18;-0.50;99.90
27306;DHT22;14792;50.886;6.468;2023-01-25T20:00:20;-0.60;99.90
27306;DHT22;14792;50.886;6.468;2023-01-25T20:03:21;-0.50;99.90
27306;DHT22;14792;50.886;6.468;2023-01-25T20:06:23;-0.60;99.90
27306;DHT22;14792;50.886;6.468;2023-01-25T20:09:24;-0.60;99.90
27306;DHT22;14792;50.886;6.468;2023-01-25T20:12:26;-0.60;99.90
27306;DHT22;14792;50.886;6.468;2023-01-25T20:15:28;-0.70;99.90
27306;DHT22;14792;50.886;6.468;2023-01-25T20:18:30;-0.80;99.90
27306;DHT22;14792;50.886;6.468;2023-01-25T20:21:31;-0.70;99.90
27306;DHT22;14792;50.886;6.468;2023-01-25T20:24:32;-0.60;99.90
27306;DHT22;14792;50.886;6.468;2023-01-25T20:27:34;-0.60;99.90
27306;DHT22;14792;50.886;6.468;2023-01-25T20:30:36;-0.60;99.90
27306;DHT22;14792;50.886;6.468;2023-01-25T20:33:37;-0.60;99.90
27306;DHT22;14792;50.886;6.468;2023-01-25T20:36:39;-0.60;99.90
27306;DHT22;14792;50.886;6.468;2023-01-25T20:39:40;-0.70;99.90
27306;DHT22;14792;50.886;6.468;2023-01-25T20:42:42;-0.60;99.90